sensor_id;sensor_type;location;lat;lon;timestamp;temperature;humidity
11284;DHT22;5698;47.332;11.180;2023-03-23T00:01:06;5.80;99.90
11284;DHT22;5698;47.332;11.180;2023-03-23T00:03:35;5.80;99.90
11284;DHT22;5698;47.332;11.180;2023-03-23T00:06:04;5.80;99.90
11284;DHT22;5698;47.332;11.180;2023-03-23T00:08:32;5.80;99.90
11284;DHT22;5698;47.332;11.180;2023-03-23T00:11:00;5.70;99.90
11284;DHT22;5698;47.332;11.180;2023-03-23T00:13:28;5.70;99.90
11284;DHT22;5698;47.332;11.180;2023-03-23T00:15:56;5.70;99.90
11284;DHT22;5698;47.332;11.180;2023-03-23T00:18:24;5.70;99.90
11284;DHT22;5698;47.332;11.180;2023-03-23T00:20:52;5.80;99.90
11284;DHT22;5698;47.332;11.180;2023-03-23T00:23:23;5.80;99.90
11284;DHT22;5698;47.332;11.180;2023-03-23T00:25:51;5.80;99.90
11284;DHT22;5698;47.332;11.180;2023-03-23T00:28:22;5.80;99.90
11284;DHT22;5698;47.332;11.180;2023-03-23T00:30:55;5.70;99.90
11284;DHT22;5698;47.332;11.180;2023-03-23T00:33:22;5.70;99.90
11284;DHT22;5698;47.332;11.180;2023-03-23T00:35:50;5.70;99.90
11284;DHT22;5698;47.332;11.180;2023-03-23T00:38:18;5.80;99.90
11284;DHT22;5698;47.332;11.180;2023-03-23T00:40:47;5.80;99.90
11284;DHT22;5698;47.332;11.180;2023-03-23T00:43:14;5.70;99.90
11284;DHT22;5698;47.332;11.180;2023-03-23T00:45:42;5.70;99.90
11284;DHT22;5698;47.332;11.180;2023-03-23T00:48:10;5.70;99.90
11284;DHT22;5698;47.332;11.180;2023-03-23T00:50:38;5.70;99.90
11284;DHT22;5698;47.332;11.180;2023-03-23T00:53:05;5.70;99.90
11284;DHT22;5698;47.332;11.180;2023-03-23T00:55:32;5.70;99.90
11284;DHT22;5698;47.332;11.180;2023-03-23T00:58:01;5.70;99.90
11284;DHT22;5698;47.332;11.180;2023-03-23T01:00:28;5.70;99.90
11284;DHT22;5698;47.332;11.180;2023-03-23T01:02:55;5.70;99.90
11284;DHT22;5698;47.332;11.180;2023-03-23T01:05:22;5.70;99.90
11284;DHT22;5698;47.332;11.180;2023-03-23T01:07:49;5.60;99.90
11284;DHT22;5698;47.332;11.180;2023-03-23T01:10:16;5.60;99.90
11284;DHT22;5698;47.332;11.180;2023-03-23T01:12:44;5.60;99.90
11284;DHT22;5698;47.332;11.180;2023-03-23T01:15:17;5.60;99.90
11284;DHT22;5698;47.332;11.180;2023-03-23T01:17:44;5.50;99.90
11284;DHT22;5698;47.332;11.180;2023-03-23T01:20:12;5.50;99.90
11284;DHT22;5698;47.332;11.180;2023-03-23T01:22:40;5.40;99.90
11284;DHT22;5698;47.332;11.180;2023-03-23T01:25:08;5.40;99.90
11284;DHT22;5698;47.332;11.180;2023-03-23T01:27:36;5.40;99.90
11284;DHT22;5698;47.332;11.180;2023-03-23T01:30:05;5.50;99.90
11284;DHT22;5698;47.332;11.180;2023-03-23T01:32:34;5.50;99.90
11284;DHT22;5698;47.332;11.180;2023-03-23T01:35:01;5.60;99.90
11284;DHT22;5698;47.332;11.180;2023-03-23T01:37:28;5.60;99.90
11284;DHT22;5698;47.332;11.180;2023-03-23T01:39:57;5.70;99.90
11284;DHT22;5698;47.332;11.180;2023-03-23T01:42:24;5.70;99.90
11284;DHT22;5698;47.332;11.180;2023-03-23T01:45:23;5.70;99.90
11284;DHT22;5698;47.332;11.180;2023-03-23T01:50:47;5.50;99.90
11284;DHT22;5698;47.332;11.180;2023-03-23T01:53:17;5.40;99.90
11284;DHT22;5698;47.332;11.180;2023-03-23T01:55:46;5.40;99.90
11284;DHT22;5698;47.332;11.180;2023-03-23T01:58:17;5.40;99.90
11284;DHT22;5698;47.332;11.180;2023-03-23T02:00:46;5.40;99.90
11284;DHT22;5698;47.332;11.180;2023-03-23T02:03:15;5.40;99.90
11284;DHT22;5698;47.332;11.180;2023-03-23T02:05:43;5.30;99.90
11284;DHT22;5698;47.332;11.180;2023-03-23T02:08:11;5.30;99.90
11284;DHT22;5698;47.332;11.180;2023-03-23T02:10:39;5.30;99.90
11284;DHT22;5698;47.332;11.180;2023-03-23T02:13:08;5.30;99.90
11284;DHT22;5698;47.332;11.180;2023-03-23T02:15:45;5.30;99.90
11284;DHT22;5698;47.332;11.180;2023-03-23T02:18:28;5.30;99.90
11284;DHT22;5698;47.332;11.180;2023-03-23T02:24:25;5.30;99.90
11284;DHT22;5698;47.332;11.180;2023-03-23T02:26:58;5.20;99.90
11284;DHT22;5698;47.332;11.180;2023-03-23T02:29:54;5.20;99.90
11284;DHT22;5698;47.332;11.180;2023-03-23T02:35:25;5.20;99.90
11284;DHT22;5698;47.332;11.180;2023-03-23T02:37:58;5.20;99.90
11284;DHT22;5698;47.332;11.180;2023-03-23T02:40:28;5.30;99.90
11284;DHT22;5698;47.332;11.180;2023-03-23T02:42:57;5.10;99.90
11284;DHT22;5698;47.332;11.180;2023-03-23T02:45:28;5.20;99.90
11284;DHT22;5698;47.332;11.180;2023-03-23T02:47:56;5.20;99.90
11284;DHT22;5698;47.332;11.180;2023-03-23T02:50:27;5.20;99.90
11284;DHT22;5698;47.332;11.180;2023-03-23T02:52:56;5.20;99.90
11284;DHT22;5698;47.332;11.180;2023-03-23T02:55:25;5.20;99.90
11284;DHT22;5698;47.332;11.180;2023-03-23T02:57:54;5.30;99.90
11284;DHT22;5698;47.332;11.180;2023-03-23T03:00:21;5.20;99.90
11284;DHT22;5698;47.332;11.180;2023-03-23T03:02:50;5.20;99.90
11284;DHT22;5698;47.332;11.180;2023-03-23T03:05:26;5.20;99.90
11284;DHT22;5698;47.332;11.180;2023-03-23T03:08:09;5.20;99.90
11284;DHT22;5698;47.332;11.180;2023-03-23T03:10:43;5.20;99.90
11284;DHT22;5698;47.332;11.180;2023-03-23T03:13:19;5.20;99.90
11284;DHT22;5698;47.332;11.180;2023-03-23T03:15:53;5.20;99.90
11284;DHT22;5698;47.332;11.180;2023-03-23T03:18:24;5.20;99.90
11284;DHT22;5698;47.332;11.180;2023-03-23T03:20:59;5.20;99.90
11284;DHT22;5698;47.332;11.180;2023-03-23T03:23:28;5.20;99.90
11284;DHT22;5698;47.332;11.180;2023-03-23T03:25:56;5.10;99.90
11284;DHT22;5698;47.332;11.180;2023-03-23T03:28:25;5.10;99.90
11284;DHT22;5698;47.332;11.180;2023-03-23T03:30:54;5.00;99.90
11284;DHT22;5698;47.332;11.180;2023-03-23T03:33:23;5.10;99.90
11284;DHT22;5698;47.332;11.180;2023-03-23T03:35:52;5.10;99.90
11284;DHT22;5698;47.332;11.180;2023-03-23T03:38:22;5.10;99.90
11284;DHT22;5698;47.332;11.180;2023-03-23T03:40:49;5.00;99.90
11284;DHT22;5698;47.332;11.180;2023-03-23T03:43:16;5.00;99.90
11284;DHT22;5698;47.332;11.180;2023-03-23T03:45:43;5.00;99.90
11284;DHT22;5698;47.332;11.180;2023-03-23T03:48:11;5.00;99.90
11284;DHT22;5698;47.332;11.180;2023-03-23T03:50:38;5.00;99.90
11284;DHT22;5698;47.332;11.180;2023-03-23T03:53:05;5.00;99.90
11284;DHT22;5698;47.332;11.180;2023-03-23T03:55:34;5.00;99.90
11284;DHT22;5698;47.332;11.180;2023-03-23T03:58:04;5.10;99.90
11284;DHT22;5698;47.332;11.180;2023-03-23T04:00:33;5.10;99.90
11284;DHT22;5698;47.332;11.180;2023-03-23T04:03:00;5.10;99.90
11284;DHT22;5698;47.332;11.180;2023-03-23T04:05:27;5.20;99.90
11284;DHT22;5698;47.332;11.180;2023-03-23T04:07:55;5.30;99.90
11284;DHT22;5698;47.332;11.180;2023-03-23T04:10:27;5.30;99.90
11284;DHT22;5698;47.332;11.180;2023-03-23T04:12:56;5.30;99.90
11284;DHT22;5698;47.332;11.180;2023-03-23T04:15:24;5.30;99.90
11284;DHT22;5698;47.332;11.180;2023-03-23T04:17:51;5.20;99.90
11284;DHT22;5698;47.332;11.180;2023-03-23T04:20:19;5.20;99.90
11284;DHT22;5698;47.332;11.180;2023-03-23T04:22:47;5.20;99.90
11284;DHT22;5698;47.332;11.180;2023-03-23T04:25:16;5.10;99.90
11284;DHT22;5698;47.332;11.180;2023-03-23T04:27:46;5.00;99.90
11284;DHT22;5698;47.332;11.180;2023-03-23T04:30:20;5.00;99.90
11284;DHT22;5698;47.332;11.180;2023-03-23T04:32:49;5.00;99.90
11284;DHT22;5698;47.332;11.180;2023-03-23T04:35:18;4.90;99.90
11284;DHT22;5698;47.332;11.180;2023-03-23T04:37:47;4.90;99.90
11284;DHT22;5698;47.332;11.180;2023-03-23T04:40:15;4.90;99.90
11284;DHT22;5698;47.332;11.180;2023-03-23T04:42:44;4.80;99.90
11284;DHT22;5698;47.332;11.180;2023-03-23T04:45:14;4.80;99.90
11284;DHT22;5698;47.332;11.180;2023-03-23T04:47:43;4.70;99.90
11284;DHT22;5698;47.332;11.180;2023-03-23T04:50:19;4.70;99.90
11284;DHT22;5698;47.332;11.180;2023-03-23T04:52:47;4.70;99.90
11284;DHT22;5698;47.332;11.180;2023-03-23T04:55:17;4.70;99.90
11284;DHT22;5698;47.332;11.180;2023-03-23T04:57:46;4.70;99.90
11284;DHT22;5698;47.332;11.180;2023-03-23T05:00:14;4.70;99.90
11284;DHT22;5698;47.332;11.180;2023-03-23T05:02:44;4.80;99.90
11284;DHT22;5698;47.332;11.180;2023-03-23T05:05:13;4.80;99.90
11284;DHT22;5698;47.332;11.180;2023-03-23T05:07:41;4.90;99.90
11284;DHT22;5698;47.332;11.180;2023-03-23T05:10:11;4.80;99.90
11284;DHT22;5698;47.332;11.180;2023-03-23T05:12:38;4.80;99.90
11284;DHT22;5698;47.332;11.180;2023-03-23T05:15:07;4.80;99.90
11284;DHT22;5698;47.332;11.180;2023-03-23T05:17:35;4.70;99.90
11284;DHT22;5698;47.332;11.180;2023-03-23T05:20:05;4.70;99.90
11284;DHT22;5698;47.332;11.180;2023-03-23T05:22:33;4.70;99.90
11284;DHT22;5698;47.332;11.180;2023-03-23T05:25:02;4.70;99.90
11284;DHT22;5698;47.332;11.180;2023-03-23T05:27:30;4.80;99.90
11284;DHT22;5698;47.332;11.180;2023-03-23T05:29:58;4.80;99.90
11284;DHT22;5698;47.332;11.180;2023-03-23T05:32:27;4.80;99.90
11284;DHT22;5698;47.332;11.180;2023-03-23T05:34:56;4.80;99.90
11284;DHT22;5698;47.332;11.180;2023-03-23T05:37:26;4.80;99.90
11284;DHT22;5698;47.332;11.180;2023-03-23T05:39:54;4.80;99.90
11284;DHT22;5698;47.332;11.180;2023-03-23T05:42:21;4.80;99.90
11284;DHT22;5698;47.332;11.180;2023-03-23T05:44:48;4.80;99.90
11284;DHT22;5698;47.332;11.180;2023-03-23T05:47:16;4.80;99.90
11284;DHT22;5698;47.332;11.180;2023-03-23T05:49:43;4.90;99.90
11284;DHT22;5698;47.332;11.180;2023-03-23T05:52:10;4.90;99.90
11284;DHT22;5698;47.332;11.180;2023-03-23T05:54:38;4.90;99.90
11284;DHT22;5698;47.332;11.180;2023-03-23T05:57:07;5.00;99.90
11284;DHT22;5698;47.332;11.180;2023-03-23T05:59:34;5.00;99.90
11284;DHT22;5698;47.332;11.180;2023-03-23T06:02:01;5.10;99.90
11284;DHT22;5698;47.332;11.180;2023-03-23T06:04:28;5.30;99.90
11284;DHT22;5698;47.332;11.180;2023-03-23T06:06:55;5.40;99.90
11284;DHT22;5698;47.332;11.180;2023-03-23T06:09:22;5.50;99.90
11284;DHT22;5698;47.332;11.180;2023-03-23T06:11:52;5.60;99.90
11284;DHT22;5698;47.332;11.180;2023-03-23T06:14:19;5.70;99.90
11284;DHT22;5698;47.332;11.180;2023-03-23T06:16:46;5.80;99.90
11284;DHT22;5698;47.332;11.180;2023-03-23T06:19:14;5.90;99.90
11284;DHT22;5698;47.332;11.180;2023-03-23T06:21:41;6.00;99.90
11284;DHT22;5698;47.332;11.180;2023-03-23T06:24:09;6.10;99.90
11284;DHT22;5698;47.332;11.180;2023-03-23T06:26:38;6.20;99.90
11284;DHT22;5698;47.332;11.180;2023-03-23T06:29:08;6.30;99.90
11284;DHT22;5698;47.332;11.180;2023-03-23T06:31:38;6.30;99.90
11284;DHT22;5698;47.332;11.180;2023-03-23T06:34:06;6.40;99.90
11284;DHT22;5698;47.332;11.180;2023-03-23T06:36:34;6.40;99.90
11284;DHT22;5698;47.332;11.180;2023-03-23T06:39:01;6.50;99.90
11284;DHT22;5698;47.332;11.180;2023-03-23T06:41:30;6.60;99.90
11284;DHT22;5698;47.332;11.180;2023-03-23T06:43:57;6.70;99.90
11284;DHT22;5698;47.332;11.180;2023-03-23T06:46:25;6.70;99.90
11284;DHT22;5698;47.332;11.180;2023-03-23T06:48:52;6.70;99.90
11284;DHT22;5698;47.332;11.180;2023-03-23T06:51:20;6.80;99.90
11284;DHT22;5698;47.332;11.180;2023-03-23T06:53:47;6.80;99.90
11284;DHT22;5698;47.332;11.180;2023-03-23T06:56:14;6.80;99.90
11284;DHT22;5698;47.332;11.180;2023-03-23T06:58:41;6.80;99.90
11284;DHT22;5698;47.332;11.180;2023-03-23T07:01:09;6.90;99.90
11284;DHT22;5698;47.332;11.180;2023-03-23T07:03:37;6.90;99.90
11284;DHT22;5698;47.332;11.180;2023-03-23T07:06:05;6.90;99.90
11284;DHT22;5698;47.332;11.180;2023-03-23T07:08:32;6.90;99.90
11284;DHT22;5698;47.332;11.180;2023-03-23T07:10:59;6.90;99.90
11284;DHT22;5698;47.332;11.180;2023-03-23T07:13:26;7.00;99.90
11284;DHT22;5698;47.332;11.180;2023-03-23T07:15:53;7.10;99.90
11284;DHT22;5698;47.332;11.180;2023-03-23T07:18:21;7.20;99.90
11284;DHT22;5698;47.332;11.180;2023-03-23T07:20:50;7.20;99.90
11284;DHT22;5698;47.332;11.180;2023-03-23T07:23:18;7.30;99.90
11284;DHT22;5698;47.332;11.180;2023-03-23T07:25:46;7.40;99.90
11284;DHT22;5698;47.332;11.180;2023-03-23T07:28:14;7.50;99.90
11284;DHT22;5698;47.332;11.180;2023-03-23T07:30:42;7.60;99.90
11284;DHT22;5698;47.332;11.180;2023-03-23T07:33:09;7.70;99.90
11284;DHT22;5698;47.332;11.180;2023-03-23T07:35:37;7.80;99.90
11284;DHT22;5698;47.332;11.180;2023-03-23T07:38:06;7.80;99.90
11284;DHT22;5698;47.332;11.180;2023-03-23T07:40:34;7.90;99.90
11284;DHT22;5698;47.332;11.180;2023-03-23T07:43:03;7.90;99.90
11284;DHT22;5698;47.332;11.180;2023-03-23T07:45:31;8.00;99.90
11284;DHT22;5698;47.332;11.180;2023-03-23T07:47:58;8.10;99.90
11284;DHT22;5698;47.332;11.180;2023-03-23T07:50:26;8.20;99.90
11284;DHT22;5698;47.332;11.180;2023-03-23T07:52:54;8.40;99.90
11284;DHT22;5698;47.332;11.180;2023-03-23T07:55:23;8.60;99.90
11284;DHT22;5698;47.332;11.180;2023-03-23T07:57:51;8.80;99.90
11284;DHT22;5698;47.332;11.180;2023-03-23T08:00:20;9.00;99.90
11284;DHT22;5698;47.332;11.180;2023-03-23T08:02:50;9.20;99.90
11284;DHT22;5698;47.332;11.180;2023-03-23T08:05:18;9.40;99.90
11284;DHT22;5698;47.332;11.180;2023-03-23T08:07:46;9.60;99.90
11284;DHT22;5698;47.332;11.180;2023-03-23T08:10:14;9.60;99.90
11284;DHT22;5698;47.332;11.180;2023-03-23T08:12:44;9.70;99.90
11284;DHT22;5698;47.332;11.180;2023-03-23T08:15:12;9.80;99.90
11284;DHT22;5698;47.332;11.180;2023-03-23T08:17:40;9.90;99.90
11284;DHT22;5698;47.332;11.180;2023-03-23T08:20:09;10.00;99.90
11284;DHT22;5698;47.332;11.180;2023-03-23T08:22:39;9.90;99.90
11284;DHT22;5698;47.332;11.180;2023-03-23T08:25:08;9.90;99.90
11284;DHT22;5698;47.332;11.180;2023-03-23T08:27:37;10.00;99.90
11284;DHT22;5698;47.332;11.180;2023-03-23T08:30:12;10.10;99.90
11284;DHT22;5698;47.332;11.180;2023-03-23T08:32:40;10.10;99.90
11284;DHT22;5698;47.332;11.180;2023-03-23T08:35:07;10.10;99.90
11284;DHT22;5698;47.332;11.180;2023-03-23T08:37:37;10.20;99.90
11284;DHT22;5698;47.332;11.180;2023-03-23T08:40:05;10.30;99.90
11284;DHT22;5698;47.332;11.180;2023-03-23T08:42:36;10.40;99.90
11284;DHT22;5698;47.332;11.180;2023-03-23T08:45:04;10.40;99.90
11284;DHT22;5698;47.332;11.180;2023-03-23T08:47:36;10.50;99.90
11284;DHT22;5698;47.332;11.180;2023-03-23T08:50:05;10.60;99.90
11284;DHT22;5698;47.332;11.180;2023-03-23T08:52:32;10.70;99.90
11284;DHT22;5698;47.332;11.180;2023-03-23T08:54:59;10.80;99.90
11284;DHT22;5698;47.332;11.180;2023-03-23T08:57:27;10.90;99.80
11284;DHT22;5698;47.332;11.180;2023-03-23T08:59:54;10.90;99.30
11284;DHT22;5698;47.332;11.180;2023-03-23T09:02:25;11.00;99.00
11284;DHT22;5698;47.332;11.180;2023-03-23T09:04:54;11.00;99.00
11284;DHT22;5698;47.332;11.180;2023-03-23T09:07:21;11.10;98.90
11284;DHT22;5698;47.332;11.180;2023-03-23T09:09:49;11.20;98.40
11284;DHT22;5698;47.332;11.180;2023-03-23T09:12:16;11.20;98.20
11284;DHT22;5698;47.332;11.180;2023-03-23T09:14:44;11.30;98.50
11284;DHT22;5698;47.332;11.180;2023-03-23T09:17:12;11.30;98.00
11284;DHT22;5698;47.332;11.180;2023-03-23T09:19:39;11.30;98.10
11284;DHT22;5698;47.332;11.180;2023-03-23T09:22:08;11.30;97.80
11284;DHT22;5698;47.332;11.180;2023-03-23T09:24:35;11.40;97.90
11284;DHT22;5698;47.332;11.180;2023-03-23T09:27:03;11.50;97.80
11284;DHT22;5698;47.332;11.180;2023-03-23T09:29:30;11.50;97.20
11284;DHT22;5698;47.332;11.180;2023-03-23T09:31:57;11.50;97.30
11284;DHT22;5698;47.332;11.180;2023-03-23T09:34:25;11.60;97.40
11284;DHT22;5698;47.332;11.180;2023-03-23T09:36:54;11.70;97.10
11284;DHT22;5698;47.332;11.180;2023-03-23T09:39:23;11.80;96.70
11284;DHT22;5698;47.332;11.180;2023-03-23T09:44:53;11.80;96.50
11284;DHT22;5698;47.332;11.180;2023-03-23T09:47:32;11.80;96.60
11284;DHT22;5698;47.332;11.180;2023-03-23T09:50:08;11.80;96.70
11284;DHT22;5698;47.332;11.180;2023-03-23T09:52:41;11.90;96.50
11284;DHT22;5698;47.332;11.180;2023-03-23T09:55:13;12.00;96.60
11284;DHT22;5698;47.332;11.180;2023-03-23T09:57:45;12.10;96.40
11284;DHT22;5698;47.332;11.180;2023-03-23T10:00:18;12.30;96.20
11284;DHT22;5698;47.332;11.180;2023-03-23T10:02:49;12.50;96.10
11284;DHT22;5698;47.332;11.180;2023-03-23T10:05:31;12.70;95.80
11284;DHT22;5698;47.332;11.180;2023-03-23T10:08:00;12.90;95.10
11284;DHT22;5698;47.332;11.180;2023-03-23T10:10:36;13.10;94.80
11284;DHT22;5698;47.332;11.180;2023-03-23T10:13:14;13.10;94.80
11284;DHT22;5698;47.332;11.180;2023-03-23T10:15:45;13.40;94.60
11284;DHT22;5698;47.332;11.180;2023-03-23T10:18:17;13.70;94.50
11284;DHT22;5698;47.332;11.180;2023-03-23T10:20:48;13.90;93.50
11284;DHT22;5698;47.332;11.180;2023-03-23T10:23:35;13.80;93.30
11284;DHT22;5698;47.332;11.180;2023-03-23T10:26:11;14.10;92.20
11284;DHT22;5698;47.332;11.180;2023-03-23T10:28:42;14.40;92.20
11284;DHT22;5698;47.332;11.180;2023-03-23T10:31:13;14.80;91.60
11284;DHT22;5698;47.332;11.180;2023-03-23T10:33:45;15.00;89.50
11284;DHT22;5698;47.332;11.180;2023-03-23T10:36:14;15.20;87.30
11284;DHT22;5698;47.332;11.180;2023-03-23T10:38:47;15.10;85.10
11284;DHT22;5698;47.332;11.180;2023-03-23T10:41:18;15.30;85.60
11284;DHT22;5698;47.332;11.180;2023-03-23T10:43:46;15.70;86.60
11284;DHT22;5698;47.332;11.180;2023-03-23T10:46:21;15.90;84.10
11284;DHT22;5698;47.332;11.180;2023-03-23T10:48:50;15.80;84.20
11284;DHT22;5698;47.332;11.180;2023-03-23T10:51:22;15.80;81.70
11284;DHT22;5698;47.332;11.180;2023-03-23T10:53:55;15.60;79.70
11284;DHT22;5698;47.332;11.180;2023-03-23T10:56:26;15.40;81.30
11284;DHT22;5698;47.332;11.180;2023-03-23T10:58:54;15.30;82.40
11284;DHT22;5698;47.332;11.180;2023-03-23T11:01:30;15.10;83.60
11284;DHT22;5698;47.332;11.180;2023-03-23T11:03:57;14.70;81.40
11284;DHT22;5698;47.332;11.180;2023-03-23T11:06:29;14.80;82.20
11284;DHT22;5698;47.332;11.180;2023-03-23T11:09:03;15.00;84.10
11284;DHT22;5698;47.332;11.180;2023-03-23T11:11:40;15.20;85.50
11284;DHT22;5698;47.332;11.180;2023-03-23T11:14:16;15.40;84.20
11284;DHT22;5698;47.332;11.180;2023-03-23T11:16:45;15.30;84.70
11284;DHT22;5698;47.332;11.180;2023-03-23T11:19:22;15.00;85.20
11284;DHT22;5698;47.332;11.180;2023-03-23T11:21:51;14.70;85.20
11284;DHT22;5698;47.332;11.180;2023-03-23T11:24:22;14.30;87.10
11284;DHT22;5698;47.332;11.180;2023-03-23T11:26:51;14.20;88.10
11284;DHT22;5698;47.332;11.180;2023-03-23T11:29:20;14.10;89.00
11284;DHT22;5698;47.332;11.180;2023-03-23T11:31:51;14.00;88.90
11284;DHT22;5698;47.332;11.180;2023-03-23T11:34:21;13.90;90.00
11284;DHT22;5698;47.332;11.180;2023-03-23T11:36:50;13.90;90.30
11284;DHT22;5698;47.332;11.180;2023-03-23T11:39:23;13.80;90.30
11284;DHT22;5698;47.332;11.180;2023-03-23T11:41:52;13.90;90.50
11284;DHT22;5698;47.332;11.180;2023-03-23T11:44:21;13.90;88.50
11284;DHT22;5698;47.332;11.180;2023-03-23T11:46:53;14.10;90.00
11284;DHT22;5698;47.332;11.180;2023-03-23T11:49:41;14.10;88.40
11284;DHT22;5698;47.332;11.180;2023-03-23T11:52:13;14.10;87.80
11284;DHT22;5698;47.332;11.180;2023-03-23T11:54:48;14.20;85.80
11284;DHT22;5698;47.332;11.180;2023-03-23T11:57:17;14.10;85.00
11284;DHT22;5698;47.332;11.180;2023-03-23T11:59:45;14.10;87.30
11284;DHT22;5698;47.332;11.180;2023-03-23T12:02:35;14.30;86.90
11284;DHT22;5698;47.332;11.180;2023-03-23T12:08:36;14.50;85.40
11284;DHT22;5698;47.332;11.180;2023-03-23T12:11:13;14.50;84.40
11284;DHT22;5698;47.332;11.180;2023-03-23T12:14:01;14.60;84.40
11284;DHT22;5698;47.332;11.180;2023-03-23T12:16:47;14.60;79.70
11284;DHT22;5698;47.332;11.180;2023-03-23T12:19:25;14.50;78.70
11284;DHT22;5698;47.332;11.180;2023-03-23T12:22:00;14.50;78.60
11284;DHT22;5698;47.332;11.180;2023-03-23T12:24:40;14.50;77.70
11284;DHT22;5698;47.332;11.180;2023-03-23T12:27:14;14.40;78.00
11284;DHT22;5698;47.332;11.180;2023-03-23T12:29:55;14.40;77.40
11284;DHT22;5698;47.332;11.180;2023-03-23T12:32:36;14.50;78.00
11284;DHT22;5698;47.332;11.180;2023-03-23T12:35:17;14.40;77.10
11284;DHT22;5698;47.332;11.180;2023-03-23T12:37:59;14.40;78.00
11284;DHT22;5698;47.332;11.180;2023-03-23T12:40:42;14.50;78.20
11284;DHT22;5698;47.332;11.180;2023-03-23T12:43:18;14.70;76.00
11284;DHT22;5698;47.332;11.180;2023-03-23T12:46:06;14.80;73.00
11284;DHT22;5698;47.332;11.180;2023-03-23T12:48:39;14.70;76.70
11284;DHT22;5698;47.332;11.180;2023-03-23T12:51:15;14.90;75.80
11284;DHT22;5698;47.332;11.180;2023-03-23T12:53:52;15.00;75.20
11284;DHT22;5698;47.332;11.180;2023-03-23T12:56:26;15.20;77.20
11284;DHT22;5698;47.332;11.180;2023-03-23T12:59:01;15.40;78.50
11284;DHT22;5698;47.332;11.180;2023-03-23T13:01:35;15.50;72.40
11284;DHT22;5698;47.332;11.180;2023-03-23T13:04:06;15.50;72.50
11284;DHT22;5698;47.332;11.180;2023-03-23T13:06:36;15.50;72.30
11284;DHT22;5698;47.332;11.180;2023-03-23T13:09:11;15.50;70.30
11284;DHT22;5698;47.332;11.180;2023-03-23T13:11:42;15.40;68.90
11284;DHT22;5698;47.332;11.180;2023-03-23T13:14:21;15.40;69.00
11284;DHT22;5698;47.332;11.180;2023-03-23T13:17:06;15.50;69.20
11284;DHT22;5698;47.332;11.180;2023-03-23T13:19:48;15.60;67.90
11284;DHT22;5698;47.332;11.180;2023-03-23T13:22:19;15.70;68.20
11284;DHT22;5698;47.332;11.180;2023-03-23T13:24:52;15.90;67.20
11284;DHT22;5698;47.332;11.180;2023-03-23T13:27:23;16.20;70.60
11284;DHT22;5698;47.332;11.180;2023-03-23T13:29:51;16.40;70.50
11284;DHT22;5698;47.332;11.180;2023-03-23T13:32:20;16.60;70.20
11284;DHT22;5698;47.332;11.180;2023-03-23T13:34:48;16.80;67.00
11284;DHT22;5698;47.332;11.180;2023-03-23T13:37:21;17.00;68.80
11284;DHT22;5698;47.332;11.180;2023-03-23T13:39:51;17.20;69.30
11284;DHT22;5698;47.332;11.180;2023-03-23T13:42:23;17.40;68.20
11284;DHT22;5698;47.332;11.180;2023-03-23T13:45:06;17.50;66.90
11284;DHT22;5698;47.332;11.180;2023-03-23T13:47:41;17.70;65.60
11284;DHT22;5698;47.332;11.180;2023-03-23T13:50:25;17.80;65.60
11284;DHT22;5698;47.332;11.180;2023-03-23T13:52:58;17.90;63.90
11284;DHT22;5698;47.332;11.180;2023-03-23T13:55:42;17.90;61.80
11284;DHT22;5698;47.332;11.180;2023-03-23T13:58:23;17.80;61.70
11284;DHT22;5698;47.332;11.180;2023-03-23T14:01:02;17.50;60.50
11284;DHT22;5698;47.332;11.180;2023-03-23T14:03:37;17.50;64.70
11284;DHT22;5698;47.332;11.180;2023-03-23T14:06:06;17.60;65.60
11284;DHT22;5698;47.332;11.180;2023-03-23T14:08:42;17.60;65.80
11284;DHT22;5698;47.332;11.180;2023-03-23T14:11:13;17.60;66.10
11284;DHT22;5698;47.332;11.180;2023-03-23T14:13:45;17.60;64.80
11284;DHT22;5698;47.332;11.180;2023-03-23T14:16:19;17.60;67.00
11284;DHT22;5698;47.332;11.180;2023-03-23T14:18:53;17.60;67.40
11284;DHT22;5698;47.332;11.180;2023-03-23T14:21:31;17.60;67.80
11284;DHT22;5698;47.332;11.180;2023-03-23T14:24:01;17.60;66.80
11284;DHT22;5698;47.332;11.180;2023-03-23T14:26:28;17.60;65.00
11284;DHT22;5698;47.332;11.180;2023-03-23T14:28:55;17.50;64.40
11284;DHT22;5698;47.332;11.180;2023-03-23T14:31:24;17.50;65.50
11284;DHT22;5698;47.332;11.180;2023-03-23T14:33:54;17.50;68.00
11284;DHT22;5698;47.332;11.180;2023-03-23T14:36:23;17.50;67.50
11284;DHT22;5698;47.332;11.180;2023-03-23T14:39:00;17.60;67.10
11284;DHT22;5698;47.332;11.180;2023-03-23T14:41:29;17.50;66.00
11284;DHT22;5698;47.332;11.180;2023-03-23T14:44:00;17.60;66.40
11284;DHT22;5698;47.332;11.180;2023-03-23T14:46:27;17.60;66.60
11284;DHT22;5698;47.332;11.180;2023-03-23T14:49:00;17.50;67.50
11284;DHT22;5698;47.332;11.180;2023-03-23T14:51:27;17.40;68.20
11284;DHT22;5698;47.332;11.180;2023-03-23T14:53:54;17.40;70.00
11284;DHT22;5698;47.332;11.180;2023-03-23T14:56:23;17.30;70.30
11284;DHT22;5698;47.332;11.180;2023-03-23T14:58:53;17.10;72.20
11284;DHT22;5698;47.332;11.180;2023-03-23T15:01:24;16.90;71.00
11284;DHT22;5698;47.332;11.180;2023-03-23T15:03:57;16.90;69.30
11284;DHT22;5698;47.332;11.180;2023-03-23T15:06:29;16.70;69.60
11284;DHT22;5698;47.332;11.180;2023-03-23T15:08:59;16.50;71.40
11284;DHT22;5698;47.332;11.180;2023-03-23T15:11:30;16.40;72.10
11284;DHT22;5698;47.332;11.180;2023-03-23T15:14:02;16.10;71.40
11284;DHT22;5698;47.332;11.180;2023-03-23T15:16:34;16.00;72.30
11284;DHT22;5698;47.332;11.180;2023-03-23T15:19:10;15.90;71.70
11284;DHT22;5698;47.332;11.180;2023-03-23T15:21:47;15.70;72.50
11284;DHT22;5698;47.332;11.180;2023-03-23T15:24:24;15.70;73.40
11284;DHT22;5698;47.332;11.180;2023-03-23T15:26:51;15.60;74.70
11284;DHT22;5698;47.332;11.180;2023-03-23T15:29:21;15.60;75.00
11284;DHT22;5698;47.332;11.180;2023-03-23T15:31:53;15.60;76.10
11284;DHT22;5698;47.332;11.180;2023-03-23T15:34:27;15.60;75.50
11284;DHT22;5698;47.332;11.180;2023-03-23T15:36:58;15.50;76.20
11284;DHT22;5698;47.332;11.180;2023-03-23T15:39:25;15.40;75.40
11284;DHT22;5698;47.332;11.180;2023-03-23T15:41:54;15.30;76.40
11284;DHT22;5698;47.332;11.180;2023-03-23T15:44:29;15.20;77.20
11284;DHT22;5698;47.332;11.180;2023-03-23T15:47:12;15.00;77.70
11284;DHT22;5698;47.332;11.180;2023-03-23T15:49:43;15.00;78.70
11284;DHT22;5698;47.332;11.180;2023-03-23T15:52:12;15.00;79.20
11284;DHT22;5698;47.332;11.180;2023-03-23T15:54:46;14.90;80.00
11284;DHT22;5698;47.332;11.180;2023-03-23T15:57:14;14.90;79.60
11284;DHT22;5698;47.332;11.180;2023-03-23T15:59:41;14.90;80.00
11284;DHT22;5698;47.332;11.180;2023-03-23T16:02:17;14.80;80.20
11284;DHT22;5698;47.332;11.180;2023-03-23T16:04:46;14.70;80.90
11284;DHT22;5698;47.332;11.180;2023-03-23T16:07:14;14.60;81.30
11284;DHT22;5698;47.332;11.180;2023-03-23T16:09:41;14.50;81.90
11284;DHT22;5698;47.332;11.180;2023-03-23T16:12:10;14.50;82.10
11284;DHT22;5698;47.332;11.180;2023-03-23T16:14:39;14.40;82.50
11284;DHT22;5698;47.332;11.180;2023-03-23T16:17:10;14.30;82.90